createdAt,value
2023-04-18T00:00:02.205Z,11.80
2023-04-18T00:02:29.601Z,11.75
2023-04-18T00:04:56.495Z,12.30
2023-04-18T00:07:23.329Z,11.35
2023-04-18T00:09:49.999Z,12.05
2023-04-18T00:12:17.564Z,12.00
2023-04-18T00:14:44.204Z,12.68
2023-04-18T00:17:10.905Z,12.07
2023-04-18T00:19:38.541Z,12.45
2023-04-18T00:22:06.438Z,12.18
2023-04-18T00:24:33.046Z,12.43
2023-04-18T00:26:59.674Z,11.80
2023-04-18T00:29:26.269Z,12.38
2023-04-18T00:31:52.895Z,11.63
2023-04-18T00:34:19.508Z,12.52
2023-04-18T00:36:46.141Z,13.38
2023-04-18T00:39:12.762Z,12.18
2023-04-18T00:41:39.402Z,12.23
2023-04-18T00:44:06.112Z,11.77
2023-04-18T00:46:32.769Z,12.77
2023-04-18T00:48:59.481Z,12.20
2023-04-18T00:51:26.249Z,12.98
2023-04-18T00:53:52.914Z,12.27
2023-04-18T00:56:19.549Z,11.90
2023-04-18T00:58:46.217Z,11.65
2023-04-18T01:01:14.216Z,12.05
2023-04-18T01:03:41.114Z,12.68
2023-04-18T01:06:07.935Z,11.70
2023-04-18T01:08:34.525Z,12.18
2023-04-18T01:11:01.147Z,11.55
2023-04-18T01:13:27.765Z,11.05
2023-04-18T01:15:55.655Z,12.50
2023-04-18T01:18:22.551Z,11.50
2023-04-18T01:20:50.330Z,12.20
2023-04-18T01:23:17.515Z,11.65
2023-04-18T01:25:44.538Z,11.77
2023-04-18T01:28:12.222Z,12.05
2023-04-18T01:30:38.893Z,11.15
2023-04-18T01:33:05.712Z,10.80
2023-04-18T01:35:33.134Z,10.80
2023-04-18T01:37:59.982Z,10.90
2023-04-18T01:40:26.599Z,10.38
2023-04-18T01:42:53.194Z,10.60
2023-04-18T01:45:19.956Z,10.68
2023-04-18T01:47:46.964Z,11.20
2023-04-18T01:50:13.762Z,10.50
2023-04-18T01:52:40.377Z,11.13
2023-04-18T01:55:07.278Z,10.75
2023-04-18T01:57:36.538Z,10.43
2023-04-18T02:00:06.524Z,10.25
2023-04-18T02:02:33.371Z,10.43
2023-04-18T02:05:00.130Z,10.05
2023-04-18T02:07:26.772Z,9.82
2023-04-18T02:09:53.380Z,10.48
2023-04-18T02:12:20.056Z,11.13
2023-04-18T02:14:51.124Z,10.40
2023-04-18T02:17:17.736Z,10.40
2023-04-18T02:19:44.337Z,9.93
2023-04-18T02:22:10.968Z,10.32
2023-04-18T02:24:37.564Z,9.95
2023-04-18T02:27:04.191Z,10.27
2023-04-18T02:29:30.788Z,10.38
2023-04-18T02:31:58.358Z,10.35
2023-04-18T02:34:25.018Z,10.60
2023-04-18T02:36:51.623Z,10.15
2023-04-18T02:39:18.218Z,9.90
2023-04-18T02:41:44.836Z,10.45
2023-04-18T02:44:11.701Z,10.45
2023-04-18T02:46:38.535Z,10.70
2023-04-18T02:49:05.132Z,10.18
2023-04-18T02:51:32.010Z,10.30
2023-04-18T02:53:58.615Z,9.77
2023-04-18T02:56:25.272Z,10.60
2023-04-18T02:58:51.882Z,10.93
2023-04-18T03:01:18.569Z,10.45
2023-04-18T03:03:45.447Z,10.63
2023-04-18T03:06:12.425Z,10.43
2023-04-18T03:08:39.031Z,10.25
2023-04-18T03:11:05.636Z,10.88
2023-04-18T03:13:32.535Z,10.70
2023-04-18T03:15:59.327Z,9.57
2023-04-18T03:18:26.024Z,9.60
2023-04-18T03:20:52.694Z,10.40
2023-04-18T03:23:19.300Z,10.30
2023-04-18T03:25:46.013Z,10.40
2023-04-18T03:28:12.672Z,10.27
2023-04-18T03:30:39.285Z,10.52
2023-04-18T03:33:05.885Z,10.90
2023-04-18T03:35:32.503Z,9.63
2023-04-18T03:37:59.099Z,10.35
2023-04-18T03:40:25.835Z,10.93
2023-04-18T03:42:52.452Z,10.50
2023-04-18T03:45:19.059Z,10.77
2023-04-18T03:47:46.111Z,10.25
2023-04-18T03:50:12.741Z,10.63
2023-04-18T03:52:39.358Z,10.52
2023-04-18T03:55:06.524Z,9.77
2023-04-18T03:57:33.185Z,10.35
2023-04-18T03:59:59.777Z,10.70
2023-04-18T04:02:26.552Z,10.43
2023-04-18T04:04:53.287Z,10.90
2023-04-18T04:07:19.928Z,10.25
2023-04-18T04:09:46.509Z,10.27
2023-04-18T04:12:13.128Z,11.05
2023-04-18T04:14:39.756Z,10.20
2023-04-18T04:17:06.511Z,10.40
2023-04-18T04:19:33.119Z,11.35
2023-04-18T04:21:59.732Z,10.30
2023-04-18T04:24:26.327Z,9.68
2023-04-18T04:26:53.219Z,9.95
2023-04-18T04:29:21.426Z,10.20
2023-04-18T04:31:48.095Z,10.55
2023-04-18T04:34:16.765Z,10.18
2023-04-18T04:36:44.236Z,9.60
2023-04-18T04:39:11.638Z,9.63
2023-04-18T04:41:39.336Z,9.57
2023-04-18T04:44:06.878Z,9.85
2023-04-18T04:46:33.933Z,10.23
2023-04-18T04:49:00.896Z,9.35
2023-04-18T04:51:27.921Z,10.55
2023-04-18T04:53:54.741Z,10.18
2023-04-18T04:56:22.837Z,10.80
2023-04-18T04:58:49.733Z,10.50
2023-04-18T05:01:16.950Z,10.40
2023-04-18T05:03:43.820Z,10.45
2023-04-18T05:06:10.805Z,10.98
2023-04-18T05:08:37.521Z,10.60
2023-04-18T05:11:04.172Z,10.43
2023-04-18T05:13:30.764Z,10.93
2023-04-18T05:15:59.227Z,10.68
2023-04-18T05:18:25.834Z,10.15
2023-04-18T05:20:52.474Z,10.27
2023-04-18T05:23:19.078Z,10.88
2023-04-18T05:25:45.775Z,11.30
2023-04-18T05:28:12.385Z,10.13
2023-04-18T05:30:39.786Z,10.60
2023-04-18T05:33:06.460Z,10.65
2023-04-18T05:35:33.145Z,10.65
2023-04-18T05:38:00.079Z,10.20
2023-04-18T05:40:30.008Z,10.18
2023-04-18T05:42:56.625Z,9.90
2023-04-18T05:45:23.259Z,10.00
2023-04-18T05:47:49.938Z,10.73
2023-04-18T05:50:16.615Z,9.77
2023-04-18T05:52:43.332Z,9.75
2023-04-18T05:55:10.174Z,9.82
2023-04-18T05:57:36.985Z,9.70
2023-04-18T06:00:06.755Z,11.10
2023-04-18T06:02:33.595Z,10.27
2023-04-18T06:05:01.399Z,9.70
2023-04-18T06:07:28.283Z,9.70
2023-04-18T06:09:54.910Z,9.45
2023-04-18T06:12:21.532Z,9.77
2023-04-18T06:14:48.416Z,9.07
2023-04-18T06:17:15.228Z,9.35
2023-04-18T06:19:44.543Z,10.07
2023-04-18T06:22:11.159Z,9.02
2023-04-18T06:24:38.547Z,10.55
2023-04-18T06:27:07.360Z,9.57
2023-04-18T06:29:36.897Z,9.25
2023-04-18T06:32:05.424Z,10.45
2023-04-18T06:34:32.184Z,10.38
2023-04-18T06:36:58.818Z,10.70
2023-04-18T06:39:25.506Z,10.15
2023-04-18T06:41:52.201Z,10.05
2023-04-18T06:44:18.932Z,9.40
2023-04-18T06:46:45.777Z,9.70
2023-04-18T06:49:12.390Z,14.32
2023-04-18T06:51:39.005Z,17.70
2023-04-18T06:54:06.048Z,14.60
2023-04-18T06:56:36.284Z,12.18
2023-04-18T06:59:03.144Z,10.25
2023-04-18T07:01:32.223Z,11.57
2023-04-18T07:03:59.080Z,9.80
2023-04-18T07:06:26.876Z,11.32
2023-04-18T07:08:55.935Z,10.27
2023-04-18T07:11:23.529Z,9.95
2023-04-18T07:13:50.457Z,10.27
2023-04-18T07:16:17.180Z,12.00
2023-04-18T07:18:43.830Z,11.02
2023-04-18T07:21:10.910Z,10.63
2023-04-18T07:23:37.578Z,10.63
2023-04-18T07:26:05.861Z,10.13
2023-04-18T07:28:32.598Z,12.73
2023-04-18T07:30:59.465Z,11.27
2023-04-18T07:33:26.106Z,10.32
2023-04-18T07:35:53.027Z,10.38
2023-04-18T07:38:19.755Z,12.00
2023-04-18T07:40:46.362Z,10.25
2023-04-18T07:43:12.952Z,10.35
2023-04-18T07:45:39.593Z,9.65
2023-04-18T07:48:06.499Z,9.85
2023-04-18T07:50:33.136Z,9.80
2023-04-18T07:52:59.948Z,10.73
2023-04-18T07:55:26.587Z,10.23
2023-04-18T07:57:53.230Z,11.57
2023-04-18T08:00:20.162Z,10.60
2023-04-18T08:02:46.927Z,15.02
2023-04-18T08:05:13.692Z,12.20
2023-04-18T08:07:40.643Z,12.48
2023-04-18T08:10:07.681Z,12.07
2023-04-18T08:12:36.203Z,14.98
2023-04-18T08:15:03.595Z,14.30
2023-04-18T08:17:31.013Z,13.90
2023-04-18T08:19:57.766Z,12.88
2023-04-18T08:22:24.399Z,13.13
2023-04-18T08:25:03.738Z,13.30
2023-04-18T08:27:31.512Z,14.88
2023-04-18T08:29:58.220Z,14.95
2023-04-18T08:32:24.904Z,15.27
2023-04-18T08:34:51.570Z,14.95
2023-04-18T08:37:18.216Z,15.70
2023-04-18T08:39:45.060Z,14.93
2023-04-18T08:42:11.838Z,15.38
2023-04-18T08:44:38.442Z,16.10
2023-04-18T08:47:07.588Z,16.85
2023-04-18T08:49:34.216Z,16.38
2023-04-18T08:52:01.126Z,16.30
2023-04-18T08:54:30.406Z,15.73
2023-04-18T08:57:07.331Z,16.80
2023-04-18T08:59:35.552Z,16.92
2023-04-18T09:02:03.987Z,15.65
2023-04-18T09:04:40.805Z,15.52
2023-04-18T09:07:10.616Z,15.30
2023-04-18T09:09:50.377Z,17.27
2023-04-18T09:12:19.537Z,15.30
2023-04-18T09:14:46.788Z,15.60
2023-04-18T09:17:34.225Z,15.05
2023-04-18T09:20:01.604Z,14.07
2023-04-18T09:22:52.243Z,13.45
2023-04-18T09:25:36.008Z,13.88
2023-04-18T09:28:03.450Z,14.20
2023-04-18T09:30:37.936Z,14.68
2023-04-18T09:33:10.086Z,14.65
2023-04-18T09:35:37.672Z,14.63
2023-04-18T09:38:04.579Z,14.05
2023-04-18T09:40:31.642Z,13.52
2023-04-18T09:42:58.367Z,12.80
2023-04-18T09:45:25.234Z,13.07
2023-04-18T09:47:52.556Z,13.27
2023-04-18T09:50:20.654Z,13.15
2023-04-18T09:52:47.738Z,13.02
2023-04-18T09:55:16.207Z,13.32
2023-04-18T09:57:44.777Z,13.27
2023-04-18T10:00:21.521Z,13.20
2023-04-18T10:02:50.500Z,12.38
2023-04-18T10:05:19.575Z,11.77
2023-04-18T10:07:48.885Z,11.57
2023-04-18T10:10:15.766Z,11.80
2023-04-18T10:12:42.431Z,11.90
2023-04-18T10:15:09.794Z,11.75
2023-04-18T10:18:04.157Z,12.15
2023-04-18T10:20:33.183Z,11.85
2023-04-18T10:22:59.910Z,11.15
2023-04-18T10:25:38.554Z,12.63
2023-04-18T10:28:08.610Z,11.38
2023-04-18T10:30:41.229Z,11.98
2023-04-18T10:36:09.933Z,12.68
2023-04-18T10:38:38.817Z,11.38
2023-04-18T10:41:25.916Z,11.45
2023-04-18T10:44:11.343Z,10.77
2023-04-18T10:46:42.248Z,10.23
2023-04-18T10:49:22.891Z,10.23
2023-04-18T10:51:58.773Z,10.57
2023-04-18T10:57:13.844Z,10.75
2023-04-18T10:59:45.229Z,9.50
2023-04-18T11:02:30.139Z,9.98
2023-04-18T11:05:01.871Z,10.20
2023-04-18T11:07:39.638Z,10.30
2023-04-18T11:10:07.298Z,10.65
2023-04-18T11:12:36.395Z,9.27
2023-04-18T11:15:08.927Z,10.63
2023-04-18T11:17:40.092Z,9.63
2023-04-18T11:20:12.667Z,9.75
2023-04-18T11:22:50.236Z,10.07
2023-04-18T11:25:17.424Z,9.63
2023-04-18T11:27:48.470Z,10.50
2023-04-18T11:30:15.349Z,10.45
2023-04-18T11:32:42.047Z,9.73
2023-04-18T11:35:10.098Z,9.82
2023-04-18T11:37:37.758Z,9.00
2023-04-18T11:40:07.476Z,9.50
2023-04-18T11:42:34.423Z,9.68
2023-04-18T11:45:01.702Z,9.75
2023-04-18T11:47:33.832Z,10.00
2023-04-18T11:50:06.838Z,9.38
2023-04-18T11:52:34.505Z,9.32
2023-04-18T11:55:14.286Z,9.57
2023-04-18T11:57:41.303Z,8.68
2023-04-18T12:00:09.551Z,9.52
2023-04-18T12:02:41.376Z,9.90
2023-04-18T12:05:09.263Z,8.43
2023-04-18T12:07:42.701Z,11.45
2023-04-18T12:10:23.312Z,13.00
2023-04-18T12:12:50.906Z,12.15
2023-04-18T12:15:17.695Z,16.58
2023-04-18T12:17:45.112Z,12.90
2023-04-18T12:20:13.280Z,19.00
2023-04-18T12:22:50.088Z,15.50
2023-04-18T12:25:26.880Z,12.50
2023-04-18T12:28:00.697Z,13.15
2023-04-18T12:30:36.841Z,13.80
2023-04-18T12:33:04.431Z,14.00
2023-04-18T12:35:31.672Z,16.00
2023-04-18T12:38:02.153Z,16.65
2023-04-18T12:40:29.266Z,13.30
2023-04-18T12:42:56.059Z,11.55
2023-04-18T12:45:23.137Z,10.80
2023-04-18T12:47:50.559Z,13.10
2023-04-18T12:50:21.830Z,10.68
2023-04-18T12:52:48.588Z,11.15
2023-04-18T12:55:15.711Z,11.52
2023-04-18T12:57:42.635Z,11.02
2023-04-18T13:00:10.729Z,11.32
2023-04-18T13:02:38.714Z,11.05
2023-04-18T13:05:06.855Z,11.43
2023-04-18T13:07:33.639Z,10.80
2023-04-18T13:10:00.747Z,11.68
2023-04-18T13:12:29.496Z,11.07
2023-04-18T13:14:56.780Z,12.13
2023-04-18T13:17:23.469Z,11.23
2023-04-18T13:19:50.543Z,13.45
2023-04-18T13:22:19.456Z,13.80
2023-04-18T13:24:46.095Z,10.95
2023-04-18T13:27:13.651Z,12.60
2023-04-18T13:29:41.175Z,10.98
2023-04-18T13:32:08.237Z,15.07
2023-04-18T13:34:46.928Z,13.00
2023-04-18T13:37:14.377Z,11.38
2023-04-18T13:39:40.998Z,11.00
2023-04-18T13:42:07.729Z,11.18
2023-04-18T13:44:35.371Z,12.90
2023-04-18T13:47:02.727Z,10.85
2023-04-18T13:49:29.470Z,12.18
2023-04-18T13:51:58.893Z,11.38
2023-04-18T13:54:29.414Z,11.68
2023-04-18T13:56:59.212Z,11.32
2023-04-18T13:59:26.339Z,11.73
2023-04-18T14:01:53.323Z,10.57
2023-04-18T14:04:21.186Z,12.25
2023-04-18T14:06:48.864Z,10.07
2023-04-18T14:09:16.633Z,10.18
2023-04-18T14:11:43.405Z,10.98
2023-04-18T14:14:10.028Z,10.18
2023-04-18T14:16:36.692Z,10.18
2023-04-18T14:19:03.307Z,10.57
2023-04-18T14:21:30.083Z,9.57
2023-04-18T14:23:56.834Z,10.23
2023-04-18T14:26:23.449Z,11.48
2023-04-18T14:28:50.077Z,10.35
2023-04-18T14:31:16.910Z,10.38
2023-04-18T14:33:43.586Z,9.57
2023-04-18T14:36:10.240Z,9.95
2023-04-18T14:38:36.891Z,9.80
2023-04-18T14:41:06.999Z,12.32
2023-04-18T14:43:33.628Z,10.60
2023-04-18T14:46:00.772Z,9.82
2023-04-18T14:48:27.899Z,9.73
2023-04-18T14:50:58.387Z,10.82
2023-04-18T14:53:25.220Z,9.60
2023-04-18T14:55:51.984Z,9.93
2023-04-18T14:58:18.645Z,10.38
2023-04-18T15:00:45.344Z,12.00
2023-04-18T15:03:12.121Z,15.50
2023-04-18T15:05:42.828Z,17.52
2023-04-18T15:08:10.933Z,16.05
2023-04-18T15:10:38.277Z,10.90
2023-04-18T15:13:04.892Z,10.43
2023-04-18T15:15:34.886Z,11.20
2023-04-18T15:18:02.431Z,10.80
2023-04-18T15:20:29.585Z,10.02
2023-04-18T15:22:56.832Z,12.40
2023-04-18T15:25:23.688Z,12.55
2023-04-18T15:27:50.582Z,11.05
2023-04-18T15:30:17.297Z,9.57
2023-04-18T15:32:44.077Z,9.95
2023-04-18T15:35:11.049Z,9.95
2023-04-18T15:37:37.764Z,9.80
2023-04-18T15:40:06.829Z,9.75
2023-04-18T15:42:33.736Z,9.30
2023-04-18T15:45:00.366Z,9.50
2023-04-18T15:47:27.191Z,10.35
2023-04-18T15:49:53.832Z,9.15
2023-04-18T15:52:20.455Z,9.88
2023-04-18T15:54:47.090Z,9.73
2023-04-18T15:57:13.733Z,8.95
2023-04-18T15:59:40.394Z,10.52
2023-04-18T16:02:08.079Z,8.95
2023-04-18T16:04:34.846Z,9.40
2023-04-18T16:07:01.615Z,10.27
2023-04-18T16:09:28.276Z,10.07
2023-04-18T16:11:54.896Z,9.75
2023-04-18T16:14:21.517Z,9.60
2023-04-18T16:16:48.157Z,9.88
2023-04-18T16:19:16.947Z,9.75
2023-04-18T16:21:43.585Z,9.63
2023-04-18T16:24:10.328Z,10.52
2023-04-18T16:26:36.942Z,11.55
2023-04-18T16:29:03.587Z,9.27
2023-04-18T16:31:30.235Z,9.63
2023-04-18T16:33:57.052Z,9.30
2023-04-18T16:36:23.740Z,9.45
2023-04-18T16:38:50.467Z,8.70
2023-04-18T16:41:17.233Z,9.02
2023-04-18T16:43:43.868Z,9.07
2023-04-18T16:46:11.837Z,9.18
2023-04-18T16:48:38.702Z,8.52
2023-04-18T16:51:05.852Z,8.95
2023-04-18T16:53:32.464Z,8.68
2023-04-18T16:56:00.803Z,9.27
2023-04-18T16:58:27.445Z,8.38
2023-04-18T17:00:54.076Z,8.82
2023-04-18T17:03:21.146Z,8.70
2023-04-18T17:05:47.912Z,9.07
2023-04-18T17:08:14.519Z,11.88
2023-04-18T17:10:41.252Z,10.55
2023-04-18T17:13:07.862Z,9.25
2023-04-18T17:15:34.478Z,9.32
2023-04-18T17:18:02.442Z,9.05
2023-04-18T17:20:29.127Z,10.32
2023-04-18T17:22:57.187Z,9.07
2023-04-18T17:25:23.812Z,11.00
2023-04-18T17:27:50.433Z,9.32
2023-04-18T17:30:17.103Z,8.77
2023-04-18T17:32:46.008Z,8.98
2023-04-18T17:35:14.508Z,8.45
2023-04-18T17:37:42.428Z,8.60
2023-04-18T17:40:09.963Z,12.15
2023-04-18T17:42:36.865Z,10.23
2023-04-18T17:45:06.587Z,8.85
2023-04-18T17:47:33.777Z,8.70
2023-04-18T17:50:00.769Z,9.25
2023-04-18T17:52:30.610Z,8.90
2023-04-18T17:54:58.183Z,9.32
2023-04-18T17:57:26.518Z,8.95
2023-04-18T17:59:53.215Z,9.27
2023-04-18T18:02:20.248Z,9.48
2023-04-18T18:04:47.187Z,9.57
2023-04-18T18:07:13.999Z,9.27
2023-04-18T18:09:43.288Z,9.43
2023-04-18T18:12:10.022Z,9.93
2023-04-18T18:14:36.666Z,8.88
2023-04-18T18:17:03.636Z,9.85
2023-04-18T18:19:30.487Z,9.27
2023-04-18T18:21:57.142Z,9.57
2023-04-18T18:24:26.108Z,9.30
2023-04-18T18:26:53.106Z,8.95
2023-04-18T18:29:19.879Z,9.90
2023-04-18T18:31:46.600Z,9.52
2023-04-18T18:34:13.893Z,9.90
2023-04-18T18:36:40.587Z,10.32
2023-04-18T18:39:07.188Z,10.38
2023-04-18T18:41:33.973Z,10.02
2023-04-18T18:44:00.591Z,10.70
2023-04-18T18:46:27.913Z,9.85
2023-04-18T18:48:57.076Z,10.65
2023-04-18T18:51:23.782Z,9.50
2023-04-18T18:53:50.507Z,10.48
2023-04-18T18:56:17.127Z,9.80
2023-04-18T18:58:43.791Z,10.77
2023-04-18T19:01:11.495Z,11.23
2023-04-18T19:03:38.438Z,10.07
2023-04-18T19:06:07.018Z,10.55
2023-04-18T19:08:34.022Z,11.23
2023-04-18T19:11:00.646Z,11.43
2023-04-18T19:13:27.253Z,11.27
2023-04-18T19:15:53.894Z,10.85
2023-04-18T19:18:21.284Z,10.25
2023-04-18T19:20:49.522Z,11.80
2023-04-18T19:23:17.132Z,11.20
2023-04-18T19:25:44.891Z,11.25
2023-04-18T19:28:12.811Z,11.55
2023-04-18T19:30:39.750Z,12.02
2023-04-18T19:33:06.536Z,10.13
2023-04-18T19:35:33.660Z,12.25
2023-04-18T19:38:02.274Z,10.75
2023-04-18T19:40:29.171Z,10.70
2023-04-18T19:42:55.787Z,10.75
2023-04-18T19:45:22.532Z,12.80
2023-04-18T19:47:49.625Z,10.82
2023-04-18T19:50:16.271Z,12.07
2023-04-18T19:52:43.066Z,11.30
2023-04-18T19:55:10.163Z,11.93
2023-04-18T19:57:41.128Z,11.90
2023-04-18T20:00:09.333Z,10.77
2023-04-18T20:02:36.320Z,11.50
2023-04-18T20:05:04.797Z,11.05
2023-04-18T20:07:31.520Z,11.55
2023-04-18T20:09:58.139Z,11.50
2023-04-18T20:12:24.763Z,11.65
2023-04-18T20:14:51.417Z,11.35
2023-04-18T20:17:18.464Z,12.00
2023-04-18T20:19:47.076Z,12.65
2023-04-18T20:22:14.841Z,13.02
2023-04-18T20:24:41.547Z,12.52
2023-04-18T20:27:08.194Z,12.80
2023-04-18T20:29:34.775Z,12.75
2023-04-18T20:32:01.419Z,12.40
2023-04-18T20:34:27.992Z,12.27
2023-04-18T20:36:54.588Z,12.13
2023-04-18T20:39:21.197Z,12.43
2023-04-18T20:41:51.266Z,12.73
2023-04-18T20:44:21.899Z,12.73
2023-04-18T20:46:48.514Z,13.13
2023-04-18T20:49:15.428Z,12.70
2023-04-18T20:51:42.226Z,12.88
2023-04-18T20:54:08.826Z,13.38
2023-04-18T20:56:38.215Z,13.32
2023-04-18T20:59:04.930Z,13.05
2023-04-18T21:01:31.642Z,13.45
2023-04-18T21:03:58.411Z,13.02
2023-04-18T21:06:25.340Z,14.52
2023-04-18T21:08:52.350Z,13.32
2023-04-18T21:11:18.951Z,14.13
2023-04-18T21:13:45.684Z,13.93
2023-04-18T21:16:12.337Z,13.73
2023-04-18T21:18:38.986Z,13.68
2023-04-18T21:21:05.729Z,13.70
2023-04-18T21:23:32.323Z,13.85
2023-04-18T21:25:58.913Z,14.60
2023-04-18T21:28:25.612Z,14.07
2023-04-18T21:30:52.222Z,13.95
2023-04-18T21:33:19.256Z,14.70
2023-04-18T21:35:45.881Z,14.25
2023-04-18T21:38:12.496Z,13.50
2023-04-18T21:40:39.102Z,15.25
2023-04-18T21:43:05.815Z,13.73
2023-04-18T21:45:33.635Z,14.65
2023-04-18T21:48:00.350Z,14.95
2023-04-18T21:50:26.959Z,14.95
2023-04-18T21:52:53.725Z,14.00
2023-04-18T21:55:20.394Z,14.88
2023-04-18T21:57:47.001Z,14.43
2023-04-18T22:00:14.003Z,14.38
2023-04-18T22:02:40.745Z,14.73
2023-04-18T22:05:07.924Z,14.75
2023-04-18T22:07:40.817Z,14.75
2023-04-18T22:10:13.295Z,15.35
2023-04-18T22:12:40.002Z,15.07
2023-04-18T22:15:07.174Z,15.00
2023-04-18T22:17:34.934Z,14.30
2023-04-18T22:20:04.527Z,15.27
2023-04-18T22:22:31.335Z,14.57
2023-04-18T22:24:57.938Z,15.18
2023-04-18T22:27:24.550Z,14.32
2023-04-18T22:29:51.150Z,14.73
2023-04-18T22:32:17.822Z,15.65
2023-04-18T22:34:44.745Z,16.17
2023-04-18T22:37:11.388Z,15.30
2023-04-18T22:39:37.989Z,15.38
2023-04-18T22:42:05.694Z,15.07
2023-04-18T22:44:32.320Z,15.30
2023-04-18T22:46:58.928Z,14.75
2023-04-18T22:49:26.107Z,14.73
2023-04-18T22:51:54.272Z,14.68
2023-04-18T22:54:21.096Z,16.08
2023-04-18T22:56:49.002Z,14.63
2023-04-18T22:59:15.642Z,15.32
2023-04-18T23:01:42.310Z,14.93
2023-04-18T23:04:09.162Z,15.18
2023-04-18T23:06:36.739Z,14.82
2023-04-18T23:09:06.020Z,15.20
2023-04-18T23:11:32.623Z,15.02
2023-04-18T23:13:59.228Z,14.68
2023-04-18T23:16:25.859Z,14.15
2023-04-18T23:18:52.530Z,14.25
2023-04-18T23:21:19.173Z,13.93
2023-04-18T23:23:45.816Z,13.65
2023-04-18T23:26:14.162Z,13.43
2023-04-18T23:28:42.186Z,12.98
2023-04-18T23:31:08.915Z,12.45
2023-04-18T23:33:35.664Z,13.07
2023-04-18T23:36:02.434Z,12.25
2023-04-18T23:38:29.047Z,12.07
2023-04-18T23:40:55.634Z,11.55
2023-04-18T23:43:22.240Z,11.20
2023-04-18T23:45:48.853Z,10.82
2023-04-18T23:48:15.558Z,10.90
2023-04-18T23:50:46.432Z,10.55
2023-04-18T23:53:13.066Z,9.48
2023-04-18T23:55:39.970Z,9.43
2023-04-18T23:58:06.601Z,9.05
